Airfield :







YOU CAN JOIN US ON...

 
LOGIN :

Register | Disclaimer

   EN    FR    IT 

 









Legend :    VFR   Marginal VFR   IFR   Intensive IFR   Very Intensive IFR
Visi :
Ceiling :
>= 8 km
>= 3000ft
5 to 8 km
1000 to 3000 ft
1500m to 5 km
500 to 1000 ft
800 to 1500m
200 to 500 ft
< 800m
< 200 ft
Symbols :   Thunderstorms  Fog  Heavy snow  Heavy precipitations  Wind > 20 kt






- Airport Elevation : 285 ft
- IATA code : ALB


KALB - Albany International

CURRENT METAR :
  • 180551Z 20006KT 10SM FEW035 BKN046 01/M02 A2960 RMK AO2 SLP025 T00061022 10017 21022 58008

EXPIRED METARs :
  • 180451Z 00000KT 10SM OVC055 M01/M02 A2961 RMK AO2 SLP029 PRESENT WX VCSH T10061017 400221022
  • 180351Z 15004KT 10SM BKN041 M01/M01 A2961 RMK AO2 SLP031 T10061011

TAF KALB
Valid from the 18 at 06:00 until the 19 at 06:00 UTC


180530Z 1806/1906 24006KT P6SM VCSH OVC035
TEMPO 1808/1812 4SM -SHSN BR OVC025
FM181200 26010KT P6SM VCSH OVC030
FM181900 29011G18KT P6SM OVC045
KZBW FIR / North America



MET'MAP, your aeronautical weather chart ! - Copyright ORBIFLY December 2007 - Disclaimer

ORBIFLY MET'MAP TEAM :

Programming & Development : Alexandra Zaïnal
Concept & original design : Baudouin d'Aumeries
Assistance for programming : Marc-Olivier Méhu
Technical & hardware support : Manuel Goepfert

Contact : metmap@orbifly.com




SOURCES & CREDITS :

   NOAA